createdAt,value
2023-06-11T00:05:08.677Z,14.37
2023-06-11T00:10:17.448Z,14.32
2023-06-11T00:15:20.482Z,14.28
2023-06-11T00:21:09.774Z,14.22
2023-06-11T00:26:36.712Z,14.16
2023-06-11T00:32:13.099Z,14.09
2023-06-11T00:37:23.738Z,14.05
2023-06-11T00:43:08.597Z,14.00
2023-06-11T00:48:31.636Z,13.94
2023-06-11T00:53:55.987Z,13.90
2023-06-11T00:59:18.947Z,13.86
2023-06-11T01:04:34.141Z,13.81
2023-06-11T01:09:58.196Z,13.76
2023-06-11T01:15:22.095Z,13.71
2023-06-11T01:21:31.562Z,13.68
2023-06-11T01:28:44.715Z,13.67
2023-06-11T01:35:40.112Z,13.66
2023-06-11T01:41:28.432Z,13.63
2023-06-11T01:47:49.772Z,13.59
2023-06-11T01:53:22.514Z,13.57
2023-06-11T01:58:34.069Z,13.55
2023-06-11T02:03:54.589Z,13.51
2023-06-11T02:10:34.742Z,13.46
2023-06-11T02:16:44.951Z,13.40
2023-06-11T02:23:19.393Z,13.38
2023-06-11T02:30:03.905Z,13.44
2023-06-11T02:36:18.139Z,13.45
2023-06-11T02:42:20.963Z,13.45
2023-06-11T02:48:27.131Z,13.46
2023-06-11T02:55:10.470Z,13.48
2023-06-11T03:00:58.557Z,13.48
2023-06-11T03:06:37.353Z,13.49
2023-06-11T03:12:22.288Z,13.53
2023-06-11T03:18:22.535Z,13.58
2023-06-11T03:24:27.318Z,13.90
2023-06-11T03:30:03.865Z,14.40
2023-06-11T03:37:03.625Z,14.95
2023-06-11T03:43:19.720Z,15.42
2023-06-11T03:49:50.452Z,15.48
2023-06-11T03:56:01.625Z,15.41
2023-06-11T04:01:12.641Z,15.41
2023-06-11T04:07:00.214Z,15.40
2023-06-11T04:12:34.501Z,15.40
2023-06-11T04:18:08.499Z,15.40
2023-06-11T04:23:41.525Z,15.41
2023-06-11T04:29:25.648Z,15.55
2023-06-11T04:35:28.233Z,15.71
2023-06-11T04:41:04.778Z,15.82
2023-06-11T04:47:18.688Z,15.92
2023-06-11T04:52:46.099Z,16.09
2023-06-11T04:58:31.356Z,16.39
2023-06-11T05:04:26.473Z,16.61
2023-06-11T05:10:39.706Z,16.76
2023-06-11T05:16:21.906Z,16.93
2023-06-11T05:22:50.855Z,17.08
2023-06-11T05:28:20.845Z,17.27
2023-06-11T05:33:37.970Z,17.43
2023-06-11T05:39:07.414Z,17.60
2023-06-11T05:44:12.310Z,17.76
2023-06-11T05:49:30.062Z,17.93
2023-06-11T05:54:41.436Z,18.09
2023-06-11T06:00:15.028Z,18.23
2023-06-11T06:06:05.070Z,18.31
2023-06-11T06:11:14.363Z,18.45
2023-06-11T06:16:29.052Z,18.57
2023-06-11T06:22:05.772Z,18.75
2023-06-11T06:27:11.801Z,18.89
2023-06-11T06:32:16.694Z,18.98
2023-06-11T06:37:44.857Z,19.01
2023-06-11T06:42:58.186Z,19.07
2023-06-11T06:48:35.277Z,19.14
2023-06-11T06:54:06.976Z,19.36
2023-06-11T06:59:24.149Z,19.46
2023-06-11T07:04:58.171Z,19.55
2023-06-11T07:11:02.342Z,19.65
2023-06-11T07:17:14.932Z,19.77
2023-06-11T07:22:51.862Z,19.80
2023-06-11T07:28:06.775Z,19.77
2023-06-11T07:33:18.120Z,19.84
2023-06-11T07:38:45.432Z,19.81
2023-06-11T07:43:48.941Z,19.96
2023-06-11T07:48:54.109Z,19.98
2023-06-11T07:54:07.155Z,20.09
2023-06-11T07:59:21.354Z,20.34
2023-06-11T08:04:23.872Z,20.61
2023-06-11T08:09:30.964Z,20.77
2023-06-11T08:14:38.434Z,20.90
2023-06-11T08:19:40.663Z,21.05
2023-06-11T08:24:51.723Z,21.09
2023-06-11T08:29:54.174Z,21.05
2023-06-11T08:35:02.254Z,21.23
2023-06-11T08:40:30.528Z,21.58
2023-06-11T08:45:46.209Z,21.92
2023-06-11T08:51:05.830Z,22.05
2023-06-11T08:56:10.957Z,22.33
2023-06-11T09:01:24.573Z,22.63
2023-06-11T09:06:29.230Z,22.64
2023-06-11T09:12:06.956Z,22.53
2023-06-11T09:17:42.915Z,22.60
2023-06-11T09:22:46.785Z,22.65
2023-06-11T09:27:52.041Z,22.56
2023-06-11T09:32:54.914Z,22.44
2023-06-11T09:37:57.368Z,22.44
2023-06-11T09:43:06.796Z,22.49
2023-06-11T09:48:13.247Z,22.48
2023-06-11T09:53:28.996Z,22.33
2023-06-11T09:58:38.215Z,22.28
2023-06-11T10:03:41.718Z,22.22
2023-06-11T10:09:04.925Z,22.23
2023-06-11T10:14:17.153Z,22.63
2023-06-11T10:19:43.403Z,23.23
2023-06-11T10:25:02.940Z,23.48
2023-06-11T10:30:09.338Z,23.50
2023-06-11T10:35:41.490Z,23.86
2023-06-11T10:40:49.141Z,23.75
2023-06-11T10:46:19.350Z,23.59
2023-06-11T10:51:25.141Z,23.72
2023-06-11T10:56:30.926Z,23.94
2023-06-11T11:01:36.120Z,23.98
2023-06-11T11:06:54.139Z,24.20
2023-06-11T11:11:59.958Z,24.26
2023-06-11T11:17:03.790Z,24.17
2023-06-11T11:22:07.961Z,24.01
2023-06-11T11:27:10.808Z,23.93
2023-06-11T11:32:30.299Z,24.13
2023-06-11T11:37:34.891Z,24.49
2023-06-11T11:42:52.163Z,24.69
2023-06-11T11:47:54.545Z,24.34
2023-06-11T11:53:05.243Z,24.38
2023-06-11T11:58:09.851Z,24.40
2023-06-11T12:03:18.244Z,24.28
2023-06-11T12:08:33.511Z,23.97
2023-06-11T12:13:46.509Z,23.97
2023-06-11T12:19:18.674Z,24.17
2023-06-11T12:24:27.382Z,24.51
2023-06-11T12:29:54.572Z,24.79
2023-06-11T12:35:08.831Z,24.88
2023-06-11T12:40:20.868Z,24.92
2023-06-11T12:45:28.325Z,25.00
2023-06-11T12:50:30.945Z,25.11
2023-06-11T12:55:33.994Z,24.86
2023-06-11T13:00:41.897Z,24.58
2023-06-11T13:05:46.339Z,24.50
2023-06-11T13:10:53.837Z,24.69
2023-06-11T13:15:55.835Z,24.78
2023-06-11T13:21:00.360Z,24.70
2023-06-11T13:26:22.903Z,24.73
2023-06-11T13:32:03.370Z,24.75
2023-06-11T13:37:11.000Z,24.93
2023-06-11T13:42:28.828Z,24.87
2023-06-11T13:48:19.454Z,24.44
2023-06-11T13:53:31.055Z,24.21
2023-06-11T13:58:45.065Z,24.29
2023-06-11T14:03:49.994Z,24.49
2023-06-11T14:09:11.499Z,24.57
2023-06-11T14:14:18.239Z,24.56
2023-06-11T14:19:47.828Z,24.57
2023-06-11T14:25:18.387Z,24.60
2023-06-11T14:30:23.530Z,24.65
2023-06-11T14:35:26.303Z,24.81
2023-06-11T14:40:32.440Z,24.93
2023-06-11T14:45:46.439Z,24.80
2023-06-11T14:50:56.772Z,24.53
2023-06-11T14:56:04.812Z,24.46
2023-06-11T15:01:16.260Z,24.46
2023-06-11T15:06:18.877Z,24.48
2023-06-11T15:11:35.707Z,24.54
2023-06-11T15:16:55.932Z,24.55
2023-06-11T15:22:11.239Z,24.57
2023-06-11T15:27:21.590Z,24.62
2023-06-11T15:32:27.511Z,24.54
2023-06-11T15:37:33.054Z,24.24
2023-06-11T15:42:58.131Z,24.01
2023-06-11T15:48:09.864Z,24.02
2023-06-11T15:53:36.961Z,24.10
2023-06-11T15:58:42.140Z,24.15
2023-06-11T16:03:45.091Z,24.04
2023-06-11T16:09:01.720Z,23.72
2023-06-11T16:14:39.463Z,23.59
2023-06-11T16:19:53.574Z,23.55
2023-06-11T16:25:07.482Z,23.59
2023-06-11T16:30:18.335Z,23.53
2023-06-11T16:35:36.554Z,23.48
2023-06-11T16:41:10.171Z,23.43
2023-06-11T16:46:57.928Z,23.43
2023-06-11T16:52:17.211Z,23.41
2023-06-11T16:57:20.277Z,23.40
2023-06-11T17:02:33.341Z,23.40
2023-06-11T17:07:40.821Z,23.46
2023-06-11T17:13:03.338Z,24.17
2023-06-11T17:18:08.400Z,25.15
2023-06-11T17:23:45.659Z,26.04
2023-06-11T17:28:51.005Z,26.85
2023-06-11T17:33:55.960Z,27.33
2023-06-11T17:39:08.356Z,27.64
2023-06-11T17:44:24.552Z,27.68
2023-06-11T17:49:32.937Z,27.47
2023-06-11T17:54:40.423Z,26.45
2023-06-11T17:59:46.041Z,25.20
2023-06-11T18:04:48.642Z,24.16
2023-06-11T18:09:59.171Z,23.31
2023-06-11T18:15:18.157Z,22.63
2023-06-11T18:20:28.546Z,22.04
2023-06-11T18:25:45.167Z,21.52
2023-06-11T18:31:04.166Z,21.11
2023-06-11T18:36:06.328Z,20.77
2023-06-11T18:41:11.577Z,20.39
2023-06-11T18:46:16.886Z,20.05
2023-06-11T18:51:26.469Z,19.71
2023-06-11T18:56:29.687Z,19.42
2023-06-11T19:01:32.544Z,19.11
2023-06-11T19:06:36.339Z,18.81
2023-06-11T19:12:02.186Z,18.60
2023-06-11T19:17:07.642Z,18.42
2023-06-11T19:22:10.532Z,18.25
2023-06-11T19:27:13.353Z,18.10
2023-06-11T19:32:15.852Z,17.91
2023-06-11T19:37:17.707Z,17.73
2023-06-11T19:42:29.263Z,17.58
2023-06-11T19:47:33.059Z,17.51
2023-06-11T19:52:38.406Z,17.46
2023-06-11T19:57:40.807Z,17.39
2023-06-11T20:02:43.482Z,17.35
2023-06-11T20:07:46.103Z,17.25
2023-06-11T20:12:48.281Z,17.16
2023-06-11T20:18:03.179Z,17.10
2023-06-11T20:23:26.269Z,16.97
2023-06-11T20:28:32.112Z,16.83
2023-06-11T20:33:36.055Z,16.70
2023-06-11T20:38:40.538Z,16.56
2023-06-11T20:43:47.129Z,16.38
2023-06-11T20:48:49.559Z,16.21
2023-06-11T20:53:55.488Z,16.06
2023-06-11T20:58:57.931Z,15.92
2023-06-11T21:04:05.808Z,15.79
2023-06-11T21:09:10.300Z,15.65
2023-06-11T21:14:18.399Z,15.52
2023-06-11T21:19:21.362Z,15.42
2023-06-11T21:24:38.602Z,15.39
2023-06-11T21:29:58.602Z,15.39
2023-06-11T21:35:11.937Z,15.37
2023-06-11T21:40:15.547Z,15.33
2023-06-11T21:45:20.467Z,15.27
2023-06-11T21:50:34.631Z,15.19
2023-06-11T21:55:41.144Z,15.11
2023-06-11T22:00:53.547Z,15.02
2023-06-11T22:05:59.779Z,14.92
2023-06-11T22:11:05.100Z,14.82
2023-06-11T22:16:14.191Z,14.74
2023-06-11T22:21:19.622Z,14.62
2023-06-11T22:26:23.768Z,14.50
2023-06-11T22:31:26.605Z,14.38
2023-06-11T22:36:50.215Z,14.28
2023-06-11T22:42:15.105Z,14.19
2023-06-11T22:47:17.498Z,14.11
2023-06-11T22:52:20.438Z,14.03
2023-06-11T22:57:27.269Z,13.94
2023-06-11T23:02:43.659Z,13.89
2023-06-11T23:07:52.807Z,13.84
2023-06-11T23:12:56.351Z,13.78
2023-06-11T23:18:07.080Z,13.72
2023-06-11T23:23:12.167Z,13.69
2023-06-11T23:28:23.599Z,13.64
2023-06-11T23:33:31.607Z,13.57
2023-06-11T23:38:49.646Z,13.50
2023-06-11T23:43:54.373Z,13.46
2023-06-11T23:49:22.792Z,13.42
2023-06-11T23:55:02.670Z,13.37
